Time;durP1;ratioP1;P1;durP2;ratioP2;P2;SDS_P1;SDS_P2;PMS_P1;PMS_P2;Temp;Humidity;BMP_temperature;BMP_pressure;BME280_temperature;BME280_humidity;BME280_pressure;Samples;Min_cycle;Max_cycle;Signal;HPM_P1;HPM_P2
2022/03/26 00:01:06;;;;;;;135.05;71.80;;;;;;;;;;5034414;28;20040;-79
2022/03/26 00:03:35;;;;;;;143.07;76.15;;;;;;;;;;5013237;28;20523;-79
2022/03/26 00:06:04;;;;;;;140.07;75.05;;;;;;;;;;4997469;28;20624;-79
2022/03/26 00:08:30;;;;;;;143.02;72.55;;;;;;;;;;5034120;28;20053;-79
2022/03/26 00:10:57;;;;;;;132.43;70.38;;;;;;;;;;5047285;28;20461;-79
2022/03/26 00:13:23;;;;;;;138.27;72.07;;;;;;;;;;5027843;28;20046;-79
2022/03/26 00:15:49;;;;;;;118.82;69.75;;;;;;;;;;4991572;28;20401;-79
2022/03/26 00:18:17;;;;;;;130.35;72.47;;;;;;;;;;5036145;28;20056;-79
2022/03/26 00:20:44;;;;;;;132.15;68.60;;;;;;;;;;5027694;28;20116;-79
2022/03/26 00:23:10;;;;;;;130.50;72.43;;;;;;;;;;5006859;28;20044;-79
2022/03/26 00:25:38;;;;;;;122.97;66.18;;;;;;;;;;5016256;28;20208;-79
2022/03/26 00:28:04;;;;;;;142.77;72.80;;;;;;;;;;5033193;28;20119;-79
2022/03/26 00:30:31;;;;;;;138.52;73.95;;;;;;;;;;5046228;28;20519;-79
2022/03/26 00:33:04;;;;;;;131.90;69.90;;;;;;;;;;5002407;28;20160;-79
2022/03/26 00:35:34;;;;;;;129.35;71.75;;;;;;;;;;5019155;28;20277;-79
2022/03/26 00:38:06;;;;;;;128.48;70.68;;;;;;;;;;5025244;28;20056;-79
2022/03/26 00:40:32;;;;;;;125.77;72.17;;;;;;;;;;5024696;28;20049;-79
2022/03/26 00:42:59;;;;;;;132.50;70.65;;;;;;;;;;5017669;28;20936;-79
2022/03/26 00:45:27;;;;;;;128.77;68.25;;;;;;;;;;5016505;28;20383;-78
2022/03/26 00:47:53;;;;;;;128.15;72.28;;;;;;;;;;4999377;28;20053;-79
2022/03/26 00:50:19;;;;;;;128.05;70.50;;;;;;;;;;5019631;28;20133;-79
2022/03/26 00:52:45;;;;;;;120.50;66.15;;;;;;;;;;5035807;28;20052;-79
2022/03/26 00:55:14;;;;;;;130.77;68.47;;;;;;;;;;5040508;28;20048;-79
2022/03/26 00:57:40;;;;;;;123.40;69.88;;;;;;;;;;5029179;28;20144;-79
2022/03/26 01:00:08;;;;;;;122.00;66.63;;;;;;;;;;5037926;28;20048;-79
2022/03/26 01:02:35;;;;;;;132.05;68.43;;;;;;;;;;5049956;28;20106;-79
2022/03/26 01:05:01;;;;;;;133.35;68.70;;;;;;;;;;5050007;28;20049;-79
2022/03/26 01:07:28;;;;;;;141.50;69.20;;;;;;;;;;5000813;28;20128;-79
2022/03/26 01:09:55;;;;;;;118.38;66.32;;;;;;;;;;5040825;28;20045;-79
2022/03/26 01:12:24;;;;;;;124.30;67.97;;;;;;;;;;5035646;28;20064;-79
2022/03/26 01:14:51;;;;;;;123.75;65.50;;;;;;;;;;5027626;28;20131;-79
2022/03/26 01:17:17;;;;;;;137.00;73.22;;;;;;;;;;5035040;28;20064;-79
2022/03/26 01:19:43;;;;;;;134.35;71.00;;;;;;;;;;5017965;28;20107;-79
2022/03/26 01:22:12;;;;;;;117.35;65.55;;;;;;;;;;4996059;28;20530;-79
2022/03/26 01:24:39;;;;;;;111.85;64.03;;;;;;;;;;5016175;28;20038;-79
2022/03/26 01:27:06;;;;;;;121.55;65.80;;;;;;;;;;5029982;28;20373;-79
2022/03/26 01:29:33;;;;;;;121.97;64.93;;;;;;;;;;4989898;28;20072;-79
2022/03/26 01:31:59;;;;;;;122.13;62.75;;;;;;;;;;5026326;28;20042;-79
2022/03/26 01:34:27;;;;;;;115.40;62.60;;;;;;;;;;5031049;28;20531;-79
2022/03/26 01:36:53;;;;;;;128.25;65.30;;;;;;;;;;5020029;28;20538;-79
2022/03/26 01:39:22;;;;;;;120.97;61.58;;;;;;;;;;5011781;28;20053;-79
2022/03/26 01:41:48;;;;;;;118.18;65.25;;;;;;;;;;5005525;28;20056;-79
2022/03/26 01:44:15;;;;;;;113.40;62.53;;;;;;;;;;5024982;28;20474;-79
2022/03/26 01:46:45;;;;;;;122.82;65.47;;;;;;;;;;5028927;28;20058;-79
2022/03/26 01:49:12;;;;;;;130.50;67.97;;;;;;;;;;5009963;28;20049;-79
2022/03/26 01:51:41;;;;;;;131.15;70.13;;;;;;;;;;5021992;28;20131;-79
2022/03/26 01:54:07;;;;;;;129.10;67.38;;;;;;;;;;5017091;28;20132;-79
2022/03/26 01:56:34;;;;;;;118.47;66.07;;;;;;;;;;5030012;28;20050;-79
2022/03/26 01:59:03;;;;;;;124.78;69.55;;;;;;;;;;5014945;28;20053;-79
2022/03/26 02:01:31;;;;;;;121.22;65.07;;;;;;;;;;5006463;28;20049;-78
2022/03/26 02:03:59;;;;;;;128.25;65.60;;;;;;;;;;4995636;28;20494;-79
2022/03/26 02:06:32;;;;;;;136.13;69.53;;;;;;;;;;5039051;28;20052;-79
2022/03/26 02:08:59;;;;;;;143.18;74.22;;;;;;;;;;5021624;28;20534;-79
2022/03/26 02:11:43;;;;;;;129.15;67.78;;;;;;;;;;5030105;28;20111;-79
2022/03/26 02:14:10;;;;;;;134.18;71.07;;;;;;;;;;5019766;28;20042;-79
2022/03/26 02:16:38;;;;;;;141.27;70.40;;;;;;;;;;5029733;28;20128;-79
2022/03/26 02:19:08;;;;;;;140.48;71.18;;;;;;;;;;5027924;28;20049;-79
2022/03/26 02:21:35;;;;;;;133.38;68.60;;;;;;;;;;5013826;28;20141;-79
2022/03/26 02:24:03;;;;;;;138.52;68.75;;;;;;;;;;5016764;28;20087;-84
2022/03/26 02:26:33;;;;;;;150.10;74.55;;;;;;;;;;5029495;28;20409;-83
2022/03/26 02:29:08;;;;;;;145.90;73.68;;;;;;;;;;5034811;28;20100;-83
2022/03/26 02:31:38;;;;;;;137.43;72.45;;;;;;;;;;5048801;28;20176;-79
2022/03/26 02:34:10;;;;;;;141.63;71.55;;;;;;;;;;5028614;28;20041;-79
2022/03/26 02:36:36;;;;;;;143.55;73.55;;;;;;;;;;5045307;28;20409;-79
2022/03/26 02:39:06;;;;;;;158.88;76.53;;;;;;;;;;5033431;28;20612;-79
2022/03/26 02:41:34;;;;;;;134.77;66.35;;;;;;;;;;5004123;28;20053;-79
2022/03/26 02:44:01;;;;;;;102.88;57.38;;;;;;;;;;5014397;28;20058;-79
2022/03/26 02:46:30;;;;;;;104.53;56.08;;;;;;;;;;5046339;28;20673;-79
2022/03/26 02:48:59;;;;;;;94.00;54.17;;;;;;;;;;4993048;28;20546;-79
2022/03/26 02:51:25;;;;;;;93.47;53.28;;;;;;;;;;5017687;28;20462;-80
2022/03/26 02:53:54;;;;;;;86.13;49.38;;;;;;;;;;5029571;28;20065;-80
2022/03/26 02:56:22;;;;;;;87.45;49.22;;;;;;;;;;5012185;28;20061;-79
2022/03/26 02:58:49;;;;;;;93.80;53.40;;;;;;;;;;5024457;28;20049;-79
2022/03/26 03:01:15;;;;;;;93.38;50.42;;;;;;;;;;5021937;28;20091;-80
2022/03/26 03:03:41;;;;;;;87.30;47.78;;;;;;;;;;4999717;28;20045;-79
2022/03/26 03:06:11;;;;;;;93.75;47.67;;;;;;;;;;4976633;28;20525;-79
2022/03/26 03:08:38;;;;;;;92.43;51.47;;;;;;;;;;5015710;28;20057;-80
2022/03/26 03:11:04;;;;;;;85.57;49.05;;;;;;;;;;4997037;28;20079;-80
2022/03/26 03:13:30;;;;;;;108.30;44.15;;;;;;;;;;4996964;28;20582;-80
2022/03/26 03:15:58;;;;;;;132.68;41.72;;;;;;;;;;5013456;28;20041;-80
2022/03/26 03:18:24;;;;;;;53.03;34.47;;;;;;;;;;5029163;28;20045;-80
2022/03/26 03:20:51;;;;;;;52.63;33.63;;;;;;;;;;4996391;28;20092;-80
2022/03/26 03:23:19;;;;;;;55.30;36.63;;;;;;;;;;5029125;28;20065;-79
2022/03/26 03:25:46;;;;;;;69.45;41.08;;;;;;;;;;5027590;28;20128;-80
2022/03/26 03:28:24;;;;;;;61.45;37.63;;;;;;;;;;5036737;28;20209;-79
2022/03/26 03:30:50;;;;;;;55.80;35.47;;;;;;;;;;5010486;28;20056;-79
2022/03/26 03:33:17;;;;;;;66.65;37.20;;;;;;;;;;5031608;28;20052;-79
2022/03/26 03:35:46;;;;;;;66.43;39.00;;;;;;;;;;5023327;28;20085;-79
2022/03/26 03:38:16;;;;;;;64.57;39.42;;;;;;;;;;5028297;28;20042;-79
2022/03/26 03:40:42;;;;;;;78.40;47.17;;;;;;;;;;5029892;28;20057;-79
2022/03/26 03:43:10;;;;;;;73.78;43.55;;;;;;;;;;5034925;28;20335;-79
2022/03/26 03:45:36;;;;;;;106.07;57.05;;;;;;;;;;5013696;28;20041;-79
2022/03/26 03:48:02;;;;;;;100.40;52.60;;;;;;;;;;5026542;28;20080;-79
2022/03/26 03:50:28;;;;;;;112.25;58.47;;;;;;;;;;5032556;28;20056;-79
2022/03/26 03:52:58;;;;;;;121.88;61.33;;;;;;;;;;4983707;28;20130;-80
2022/03/26 03:55:24;;;;;;;120.22;60.50;;;;;;;;;;5009703;28;20050;-79
2022/03/26 03:57:50;;;;;;;122.50;63.42;;;;;;;;;;5024538;28;20053;-78
2022/03/26 04:00:16;;;;;;;105.05;58.85;;;;;;;;;;5034299;28;20049;-79
2022/03/26 04:02:44;;;;;;;111.40;59.20;;;;;;;;;;5011813;28;20053;-79
2022/03/26 04:05:26;;;;;;;100.00;54.10;;;;;;;;;;5011493;28;20115;-79
2022/03/26 04:07:52;;;;;;;91.72;48.47;;;;;;;;;;5034967;28;20061;-79
2022/03/26 04:10:19;;;;;;;98.22;50.58;;;;;;;;;;5029024;28;20510;-83
2022/03/26 04:12:53;;;;;;;93.05;51.92;;;;;;;;;;5012072;28;20050;-81
2022/03/26 04:15:22;;;;;;;86.97;49.25;;;;;;;;;;5010608;28;20072;-83
2022/03/26 04:17:55;;;;;;;86.78;49.83;;;;;;;;;;5032492;28;20080;-83
2022/03/26 04:20:26;;;;;;;87.28;48.10;;;;;;;;;;5013743;28;20054;-82
2022/03/26 04:22:55;;;;;;;88.80;49.85;;;;;;;;;;5006478;28;20046;-82
2022/03/26 04:25:21;;;;;;;89.25;47.78;;;;;;;;;;5028135;28;20053;-83
2022/03/26 04:27:53;;;;;;;97.93;48.88;;;;;;;;;;5013499;28;20537;-82
2022/03/26 04:30:20;;;;;;;101.28;50.25;;;;;;;;;;5039993;28;20379;-82
2022/03/26 04:32:46;;;;;;;78.50;45.10;;;;;;;;;;5028660;28;20045;-83
2022/03/26 04:35:12;;;;;;;92.72;50.03;;;;;;;;;;4993733;28;20081;-83
2022/03/26 04:37:39;;;;;;;92.68;50.17;;;;;;;;;;5020734;28;20124;-83
2022/03/26 04:40:06;;;;;;;86.18;49.28;;;;;;;;;;4995495;28;20138;-83
2022/03/26 04:42:32;;;;;;;95.68;50.08;;;;;;;;;;5032685;28;20041;-83
2022/03/26 04:44:59;;;;;;;81.30;48.05;;;;;;;;;;5016615;28;20077;-83
2022/03/26 04:47:25;;;;;;;91.00;48.28;;;;;;;;;;5019562;28;20060;-83
2022/03/26 04:49:51;;;;;;;105.35;56.85;;;;;;;;;;5025512;28;20476;-83
2022/03/26 04:52:20;;;;;;;105.75;54.08;;;;;;;;;;5028948;28;20049;-83
2022/03/26 04:54:48;;;;;;;113.20;56.25;;;;;;;;;;5002368;28;20140;-83
2022/03/26 04:57:16;;;;;;;105.18;56.42;;;;;;;;;;5016933;28;20473;-83
2022/03/26 04:59:46;;;;;;;91.05;52.90;;;;;;;;;;5049285;28;20069;-83
2022/03/26 05:02:13;;;;;;;111.53;57.30;;;;;;;;;;5022112;28;20489;-82
2022/03/26 05:04:39;;;;;;;101.43;53.50;;;;;;;;;;5019288;28;20125;-82
2022/03/26 05:09:52;;;;;;;110.70;58.08;;;;;;;;;;5023016;28;20050;-83
2022/03/26 05:12:21;;;;;;;98.57;53.63;;;;;;;;;;5033151;28;20536;-82
2022/03/26 05:14:50;;;;;;;101.97;57.60;;;;;;;;;;5025511;28;20334;-82
2022/03/26 05:17:19;;;;;;;95.90;53.67;;;;;;;;;;5032339;28;20045;-82
2022/03/26 05:19:45;;;;;;;95.95;54.05;;;;;;;;;;5007190;28;20057;-82
2022/03/26 05:22:14;;;;;;;104.35;55.13;;;;;;;;;;4996345;28;20116;-82
2022/03/26 05:24:47;;;;;;;107.88;52.17;;;;;;;;;;5042602;28;20056;-82
2022/03/26 05:27:14;;;;;;;94.90;50.55;;;;;;;;;;5035333;28;20116;-82
2022/03/26 05:29:40;;;;;;;88.10;49.10;;;;;;;;;;5049313;28;20061;-83
2022/03/26 05:32:07;;;;;;;89.78;48.28;;;;;;;;;;5021754;28;20413;-82
2022/03/26 05:34:36;;;;;;;81.57;47.88;;;;;;;;;;5024806;28;20049;-82
2022/03/26 05:37:04;;;;;;;82.05;46.00;;;;;;;;;;5035217;28;20059;-82
2022/03/26 05:39:31;;;;;;;75.20;44.15;;;;;;;;;;5035737;28;20135;-82
2022/03/26 05:41:57;;;;;;;65.50;38.25;;;;;;;;;;5012699;28;20180;-82
2022/03/26 05:44:23;;;;;;;58.50;38.03;;;;;;;;;;4993316;28;20046;-82
2022/03/26 05:46:49;;;;;;;62.70;36.25;;;;;;;;;;5031118;28;20045;-82
2022/03/26 05:49:16;;;;;;;62.90;38.85;;;;;;;;;;5035424;28;20052;-82
2022/03/26 05:51:42;;;;;;;62.05;38.22;;;;;;;;;;5010938;28;20069;-82
2022/03/26 05:54:09;;;;;;;63.53;38.03;;;;;;;;;;5031729;28;20513;-82
2022/03/26 05:56:38;;;;;;;67.72;40.33;;;;;;;;;;5017444;28;20213;-82
2022/03/26 05:59:12;;;;;;;66.20;36.90;;;;;;;;;;4984661;28;20045;-82
2022/03/26 06:01:38;;;;;;;65.13;38.88;;;;;;;;;;5030880;28;20048;-83
2022/03/26 06:04:04;;;;;;;61.58;37.85;;;;;;;;;;5040213;28;20521;-80
2022/03/26 06:06:30;;;;;;;67.03;38.50;;;;;;;;;;5029675;28;20040;-79
2022/03/26 06:09:07;;;;;;;56.40;35.88;;;;;;;;;;5004074;28;20187;-80
2022/03/26 06:11:33;;;;;;;51.85;34.30;;;;;;;;;;5019361;28;20045;-80
2022/03/26 06:14:00;;;;;;;53.90;38.05;;;;;;;;;;4983168;28;20142;-80
2022/03/26 06:16:26;;;;;;;59.28;37.55;;;;;;;;;;5037904;28;20053;-80
2022/03/26 06:18:52;;;;;;;64.10;39.35;;;;;;;;;;5033744;28;20072;-80
2022/03/26 06:21:19;;;;;;;71.90;40.30;;;;;;;;;;5028093;28;20394;-80
2022/03/26 06:23:45;;;;;;;56.38;35.47;;;;;;;;;;5005579;28;20049;-80
2022/03/26 06:26:11;;;;;;;63.13;39.17;;;;;;;;;;5021612;28;20042;-80
2022/03/26 06:28:38;;;;;;;64.30;37.08;;;;;;;;;;5014487;28;20049;-80
2022/03/26 06:31:09;;;;;;;80.70;42.70;;;;;;;;;;5020101;28;20072;-80
2022/03/26 06:33:36;;;;;;;74.97;38.20;;;;;;;;;;5027748;28;20077;-80
2022/03/26 06:36:02;;;;;;;72.00;39.92;;;7.80;99.90;;;;;;4997955;28;20412;-79
2022/03/26 06:38:31;;;;;;;67.40;37.45;;;5.00;99.90;;;;;;5011890;28;20144;-79
2022/03/26 06:41:05;;;;;;;64.40;41.40;;;5.00;99.90;;;;;;5003760;28;20099;-79
2022/03/26 06:43:37;;;;;;;70.35;44.88;;;5.00;99.90;;;;;;5001468;28;20148;-82
2022/03/26 06:46:04;;;;;;;79.40;45.70;;;5.10;99.90;;;;;;4997491;28;20108;-82
2022/03/26 06:48:42;;;;;;;78.57;45.45;;;5.10;99.90;;;;;;5012437;28;20093;-82
2022/03/26 06:51:10;;;;;;;90.90;47.08;;;5.20;99.90;;;;;;5003605;28;20140;-82
2022/03/26 06:53:38;;;;;;;89.60;48.83;;;5.30;99.90;;;;;;5026932;28;20552;-84
2022/03/26 06:56:08;;;;;;;94.38;52.88;;;5.50;99.90;;;;;;4996945;28;20053;-80
2022/03/26 06:58:35;;;;;;;97.75;55.85;;;5.80;99.90;;;;;;5004533;28;20086;-79
2022/03/26 07:01:01;;;;;;;92.68;52.53;;;6.30;99.90;;;;;;5027378;28;20045;-80
2022/03/26 07:03:27;;;;;;;98.90;53.38;;;6.60;99.90;;;;;;4999185;28;20128;-80
2022/03/26 07:05:56;;;;;;;95.43;51.28;;;6.90;99.90;;;;;;4993227;28;20183;-79
2022/03/26 07:08:24;;;;;;;106.07;54.45;;;7.00;99.90;;;;;;4987679;28;20053;-79
2022/03/26 07:10:49;;;;;;;90.20;48.90;;;6.90;99.90;;;;;;5036457;28;20390;-80
2022/03/26 07:13:16;;;;;;;95.00;53.53;;;6.90;99.90;;;;;;5002379;28;20157;-81
2022/03/26 07:15:43;;;;;;;94.07;53.53;;;6.80;99.90;;;;;;5021984;28;20045;-80
2022/03/26 07:18:13;;;;;;;86.80;50.65;;;6.80;99.90;;;;;;5010701;28;20053;-80
2022/03/26 07:20:43;;;;;;;99.57;51.92;;;6.80;99.90;;;;;;5020865;28;20490;-80
2022/03/26 07:23:09;;;;;;;107.15;53.70;;;6.80;99.90;;;;;;5029300;28;20046;-80
2022/03/26 07:25:36;;;;;;;104.05;54.33;;;6.80;99.90;;;;;;5007508;28;20075;-80
2022/03/26 07:28:02;;;;;;;95.55;54.42;;;6.80;99.90;;;;;;5027685;28;20105;-80
2022/03/26 07:30:28;;;;;;;103.50;55.13;;;6.90;99.90;;;;;;5032082;28;20040;-80
2022/03/26 07:32:54;;;;;;;106.10;56.20;;;6.90;99.90;;;;;;5008848;28;20052;-80
2022/03/26 07:35:20;;;;;;;93.82;53.33;;;7.00;99.90;;;;;;5025566;28;20050;-80
2022/03/26 07:37:45;;;;;;;103.38;55.63;;;7.00;99.90;;;;;;5026927;28;20422;-84
2022/03/26 07:40:12;;;;;;;110.55;57.17;;;7.00;99.90;;;;;;5028383;28;20141;-83
2022/03/26 07:42:38;;;;;;;118.35;61.30;;;7.10;99.90;;;;;;5034285;28;20112;-83
2022/03/26 07:45:08;;;;;;;129.05;61.03;;;7.20;99.90;;;;;;5009671;28;20037;-83
2022/03/26 07:47:38;;;;;;;114.93;62.15;;;7.30;99.90;;;;;;5031983;28;20100;-84
2022/03/26 07:50:04;;;;;;;112.50;59.67;;;;;;;;;;5034456;28;20045;-83
2022/03/26 07:52:32;;;;;;;110.70;58.80;;;;;;;;;;5033072;28;20045;-83
2022/03/26 07:55:05;;;;;;;119.13;61.63;;;7.30;99.90;;;;;;5027997;28;20053;-83
2022/03/26 07:57:31;;;;;;;104.10;56.42;;;7.60;99.90;;;;;;5013858;28;20100;-83
2022/03/26 07:59:56;;;;;;;106.45;59.05;;;7.70;99.90;;;;;;5016480;28;20417;-83
2022/03/26 08:02:22;;;;;;;111.53;60.40;;;;;;;;;;5031509;28;20072;-83
2022/03/26 08:04:51;;;;;;;114.22;60.10;;;;;;;;;;5033757;28;20485;-83
2022/03/26 08:07:19;;;;;;;105.43;58.33;;;;;;;;;;5021499;28;20131;-83
2022/03/26 08:09:45;;;;;;;103.88;56.58;;;;;;;;;;5030900;28;20052;-83
2022/03/26 08:12:11;;;;;;;110.50;56.33;;;;;;;;;;4981131;28;20044;-83
2022/03/26 08:14:37;;;;;;;102.95;52.40;;;7.80;99.90;;;;;;5037417;28;20045;-83
2022/03/26 08:17:04;;;;;;;95.40;52.75;;;8.40;99.90;;;;;;5019731;28;20045;-84
2022/03/26 08:19:29;;;;;;;88.47;48.25;;;8.40;99.90;;;;;;5003919;28;20067;-83
2022/03/26 08:21:55;;;;;;;88.10;49.95;;;8.50;99.90;;;;;;5003219;28;20045;-84
2022/03/26 08:24:22;;;;;;;81.47;46.45;;;;;;;;;;5027793;28;20065;-84
2022/03/26 08:26:48;;;;;;;82.25;47.40;;;8.50;99.90;;;;;;5028205;28;20544;-84
2022/03/26 08:29:17;;;;;;;87.65;46.53;;;8.70;99.90;;;;;;5018741;28;20100;-84
2022/03/26 08:31:42;;;;;;;88.03;44.92;;;8.80;99.90;;;;;;5025371;28;20271;-84
2022/03/26 08:34:08;;;;;;;88.35;46.30;;;;;;;;;;4995369;28;20257;-84
2022/03/26 08:36:35;;;;;;;77.55;46.13;;;;;;;;;;5005879;28;20048;-84
2022/03/26 08:39:05;;;;;;;74.18;44.97;;;;;;;;;;5014310;28;20056;-84
2022/03/26 08:41:31;;;;;;;81.63;42.05;;;;;;;;;;4997996;28;20099;-83
2022/03/26 08:43:58;;;;;;;75.88;46.00;;;;;;;;;;5014582;28;20045;-84
2022/03/26 08:46:24;;;;;;;68.05;39.30;;;;;;;;;;5034911;28;20056;-84
2022/03/26 08:48:50;;;;;;;74.75;39.08;;;;;;;;;;5030859;28;20462;-84
2022/03/26 08:51:17;;;;;;;59.90;36.25;;;;;;;;;;5031505;28;20112;-84
2022/03/26 08:53:43;;;;;;;67.45;38.78;;;;;;;;;;5001053;28;20477;-83
2022/03/26 08:56:12;;;;;;;62.20;36.90;;;;;;;;;;5033971;28;20041;-81
2022/03/26 08:58:38;;;;;;;71.03;38.20;;;;;;;;;;5028551;28;20057;-81
2022/03/26 09:01:06;;;;;;;62.15;38.60;;;;;;;;;;5031118;28;20120;-84
2022/03/26 09:03:32;;;;;;;65.00;39.13;;;;;;;;;;5018060;28;20052;-84
2022/03/26 09:06:01;;;;;;;60.50;37.45;;;;;;;;;;5030206;28;20065;-84
2022/03/26 09:08:28;;;;;;;61.00;36.13;;;;;;;;;;5029507;28;20045;-84
2022/03/26 09:10:54;;;;;;;57.65;35.88;;;;;;;;;;5048953;28;20063;-84
2022/03/26 09:13:20;;;;;;;64.82;37.63;;;;;;;;;;5033338;28;20057;-84
2022/03/26 09:15:46;;;;;;;55.08;32.58;;;;;;;;;;5030499;28;20441;-84
2022/03/26 09:18:12;;;;;;;49.50;33.60;;;;;;;;;;4983568;28;20404;-84
2022/03/26 09:20:38;;;;;;;58.13;33.95;;;;;;;;;;5014920;28;20045;-81
2022/03/26 09:23:06;;;;;;;68.38;38.45;;;;;;;;;;5025916;28;20124;-81
2022/03/26 09:25:33;;;;;;;46.75;31.98;;;;;;;;;;5039459;28;20041;-81
2022/03/26 09:27:59;;;;;;;57.45;33.38;;;;;;;;;;5030064;28;20064;-81
2022/03/26 09:30:25;;;;;;;54.33;33.53;;;;;;;;;;5048016;28;20096;-81
2022/03/26 09:32:55;;;;;;;49.15;31.15;;;;;;;;;;5026241;28;20052;-81
2022/03/26 09:35:21;;;;;;;46.65;29.27;;;;;;;;;;5003474;28;20057;-82
2022/03/26 09:37:47;;;;;;;45.25;26.98;;;;;;;;;;5003833;28;20049;-81
2022/03/26 09:40:14;;;;;;;47.38;28.58;;;;;;;;;;5014612;28;20049;-81
2022/03/26 09:42:40;;;;;;;45.95;28.10;;;;;;;;;;5026752;28;20184;-81
2022/03/26 09:45:07;;;;;;;45.47;28.70;;;;;;;;;;5033152;28;20048;-82
2022/03/26 09:47:34;;;;;;;43.25;28.33;;;;;;;;;;5031176;28;20056;-81
2022/03/26 09:50:00;;;;;;;34.70;23.23;;;;;;;;;;5036307;28;20057;-81
2022/03/26 09:52:28;;;;;;;33.88;24.08;;;;;;;;;;4995174;28;20054;-80
2022/03/26 09:54:57;;;;;;;34.00;21.73;;;;;;;;;;5032481;28;20501;-81
2022/03/26 09:57:23;;;;;;;29.52;20.48;;;;;;;;;;5031096;28;20144;-81
2022/03/26 09:59:49;;;;;;;25.77;17.10;;;;;;;;;;5012435;28;20053;-80
2022/03/26 10:02:16;;;;;;;32.30;18.83;;;;;;;;;;5032710;28;20049;-80
2022/03/26 10:04:43;;;;;;;26.42;17.27;;;;;;;;;;4995151;28;20053;-80
2022/03/26 10:07:11;;;;;;;23.25;14.52;;;;;;;;;;5033105;28;20786;-80
2022/03/26 10:09:38;;;;;;;19.02;13.50;;;;;;;;;;5004865;28;20133;-80
2022/03/26 10:12:04;;;;;;;18.48;12.05;;;;;;;;;;4974256;28;20368;-80
2022/03/26 10:14:38;;;;;;;22.70;14.38;;;;;;;;;;5033134;28;20494;-80
2022/03/26 10:17:13;;;;;;;19.40;11.75;;;;;;;;;;5017119;28;20449;-80
2022/03/26 10:19:41;;;;;;;18.90;12.32;;;;;;;;;;5013937;28;20058;-81
2022/03/26 10:22:13;;;;;;;23.35;14.20;;;;;;;;;;5032438;28;20053;-81
2022/03/26 10:24:43;;;;;;;19.83;12.73;;;;;;;;;;5035839;28;20080;-80
2022/03/26 10:27:12;;;;;;;18.20;12.35;;;;;;;;;;5028506;28;20136;-81
2022/03/26 10:29:50;;;;;;;18.17;11.23;;;;;;;;;;5033428;28;20079;-81
2022/03/26 10:32:41;;;;;;;20.33;12.45;;;;;;;;;;5010564;28;20109;-81
2022/03/26 10:35:12;;;;;;;16.02;11.40;;;;;;;;;;4990782;28;20045;-81
2022/03/26 10:37:42;;;;;;;19.50;10.07;;;;;;;;;;5014017;28;20056;-80
2022/03/26 10:40:19;;;;;;;16.50;9.80;;;;;;;;;;5037092;28;20060;-80
2022/03/26 10:42:45;;;;;;;16.98;10.18;;;;;;;;;;5017164;28;20131;-80
2022/03/26 10:45:15;;;;;;;15.07;9.40;;;;;;;;;;5029267;28;20046;-81
2022/03/26 10:47:44;;;;;;;13.05;8.45;;;;;;;;;;4992188;28;20610;-81
2022/03/26 10:50:14;;;;;;;14.02;8.77;;;;;;;;;;5018881;28;20088;-81
2022/03/26 10:52:40;;;;;;;19.95;8.68;;;;;;;;;;5016880;28;20075;-81
2022/03/26 10:55:16;;;;;;;10.90;7.68;;;;;;;;;;5028649;28;20478;-80
2022/03/26 10:57:47;;;;;;;13.65;8.45;;;;;;;;;;5030835;28;20128;-81
2022/03/26 11:00:17;;;;;;;14.45;8.02;;;;;;;;;;5027979;28;20077;-81
2022/03/26 11:02:44;;;;;;;10.63;7.80;;;;;;;;;;5029243;28;20469;-81
2022/03/26 11:05:19;;;;;;;12.70;8.82;;;;;;;;;;5025636;28;20068;-80
2022/03/26 11:07:45;;;;;;;11.75;8.60;;;;;;;;;;4999807;28;20053;-80
2022/03/26 11:10:13;;;;;;;18.77;9.07;;;;;;;;;;5012608;28;20744;-81
2022/03/26 11:12:43;;;;;;;13.57;8.98;;;;;;;;;;5012950;28;20189;-80
2022/03/26 11:15:10;;;;;;;9.85;7.32;;;;;;;;;;5011773;28;20086;-80
2022/03/26 11:17:41;;;;;;;13.13;6.78;;;;;;;;;;4994749;28;20056;-84
2022/03/26 11:20:10;;;;;;;7.50;5.80;;;;;;;;;;5028740;28;20113;-84
2022/03/26 11:22:48;;;;;;;15.40;6.22;;;;;;;;;;5013595;28;20116;-84
2022/03/26 11:25:17;;;;;;;9.38;6.43;;;;;;;;;;5031202;28;20374;-84
2022/03/26 11:28:15;;;;;;;9.23;5.20;;;;;;;;;;5006454;28;20056;-84
2022/03/26 11:30:47;;;;;;;9.93;5.72;;;;;;;;;;4926179;28;20046;-84
2022/03/26 11:33:17;;;;;;;8.07;5.35;;;;;;;;;;4992479;28;20313;-82
2022/03/26 11:36:19;;;;;;;10.73;6.07;;;;;;;;;;5019681;28;20132;-83
2022/03/26 11:39:08;;;;;;;10.48;5.68;;;;;;;;;;4929306;28;20063;-84
2022/03/26 11:41:34;;;;;;;8.65;5.07;;;;;;;;;;5022434;28;20052;-80
2022/03/26 11:44:01;;;;;;;10.15;5.43;;;;;;;;;;5010095;28;20061;-80
2022/03/26 11:52:25;;;;;;;6.35;4.53;;;;;;;;;;5020600;28;20037;-80
2022/03/26 11:55:24;;;;;;;8.20;4.45;;;;;;;;;;5030378;28;20049;-80
2022/03/26 11:58:29;;;;;;;8.27;5.20;;;;;;;;;;5014978;28;20486;-80
2022/03/26 12:01:09;;;;;;;6.88;4.53;;;;;;;;;;4987194;28;20613;-80
2022/03/26 12:03:44;;;;;;;6.18;4.18;;;;;;;;;;5006507;28;20470;-80
2022/03/26 12:06:37;;;;;;;6.55;3.67;;;;;;;;;;5013310;28;20529;-80
2022/03/26 12:09:04;;;;;;;6.18;4.40;;;;;;;;;;5032613;28;20060;-80
2022/03/26 12:11:34;;;;;;;8.38;5.22;;;;;;;;;;5006501;28;20060;-80
2022/03/26 12:14:26;;;;;;;8.95;5.18;;;;;;;;;;5035969;28;20361;-80
2022/03/26 12:16:52;;;;;;;8.80;5.15;;;;;;;;;;5024739;28;20089;-80
2022/03/26 12:19:37;;;;;;;6.15;4.03;;;;;;;;;;5022995;28;20390;-80
2022/03/26 12:22:19;;;;;;;5.93;3.50;;;;;;;;;;5030338;28;20042;-80
2022/03/26 12:24:48;;;;;;;8.48;4.25;;;;;;;;;;5022663;28;20482;-80
2022/03/26 12:27:15;;;;;;;7.63;4.40;;;;;;;;;;4994347;28;20050;-80
2022/03/26 12:29:45;;;;;;;6.00;3.97;;;;;;;;;;5012097;28;20044;-81
2022/03/26 12:32:11;;;;;;;8.55;4.78;;;;;;;;;;5016061;28;20486;-80
2022/03/26 12:35:17;;;;;;;5.72;2.92;;;;;;;;;;5024380;28;20493;-80
2022/03/26 12:37:43;;;;;;;5.43;3.35;;;;;;;;;;4996843;28;20120;-79
2022/03/26 12:40:12;;;;;;;5.55;3.60;;;;;;;;;;5010448;28;20393;-83
2022/03/26 12:42:38;;;;;;;3.53;2.72;;;;;;;;;;5026779;28;20488;-80
2022/03/26 12:45:17;;;;;;;6.70;3.15;;;;;;;;;;5013575;28;20045;-79
2022/03/26 12:47:45;;;;;;;5.43;3.55;;;;;;;;;;5016531;28;20132;-83
2022/03/26 12:50:12;;;;;;;5.78;3.50;;;;;;;;;;5015562;28;20045;-79
2022/03/26 12:52:38;;;;;;;6.53;3.67;;;;;;;;;;5024089;28;20081;-79
2022/03/26 12:55:04;;;;;;;4.53;3.30;;;;;;;;;;5039491;28;20305;-80
2022/03/26 12:58:56;;;;;;;8.30;4.63;;;;;;;;;;5007810;28;20558;-80
2022/03/26 13:00:27;;;;;;;6.60;4.57;;;;;;;;;;5016147;28;20085;-80
2022/03/26 13:03:05;;;;;;;6.47;3.40;;;;;;;;;;5020429;28;20109;-80
2022/03/26 13:05:32;;;;;;;10.13;4.28;;;;;;;;;;5024010;28;20050;-80
2022/03/26 13:07:59;;;;;;;7.93;4.63;;;;;;;;;;5031874;28;20046;-80
2022/03/26 13:10:36;;;;;;;5.38;3.20;;;;;;;;;;5017805;28;20340;-80
2022/03/26 13:13:03;;;;;;;6.45;3.92;;;;;;;;;;5006971;28;20054;-80
2022/03/26 13:15:29;;;;;;;10.85;4.10;;;;;;;;;;5033341;28;20453;-80
2022/03/26 13:18:01;;;;;;;7.22;4.32;;;;;;;;;;5008133;28;20482;-80
2022/03/26 13:20:28;;;;;;;4.82;3.25;;;;;;;;;;4987469;28;20102;-80
2022/03/26 13:22:59;;;;;;;4.90;3.03;;;;;;;;;;5018000;28;20618;-80
2022/03/26 13:25:26;;;;;;;4.85;3.20;;;;;;;;;;4970557;28;20088;-80
2022/03/26 13:28:17;;;;;;;6.00;3.10;;;;;;;;;;4993233;28;20127;-79
2022/03/26 13:31:08;;;;;;;6.30;3.65;;;;;;;;;;4992816;28;20133;-79
2022/03/26 13:33:34;;;;;;;7.70;2.90;;;;;;;;;;4995823;28;20071;-80
2022/03/26 13:36:01;;;;;;;6.57;3.15;;;;;;;;;;4976569;28;20057;-80
2022/03/26 13:38:28;;;;;;;7.38;4.38;;;;;;;;;;4993507;28;20075;-80
2022/03/26 13:40:55;;;;;;;8.07;4.28;;;;;;;;;;4982536;28;20073;-80
2022/03/26 13:43:21;;;;;;;6.63;3.85;;;;;;;;;;4979884;28;20053;-80
2022/03/26 13:45:49;;;;;;;6.90;4.00;;;;;;;;;;4974395;28;20060;-80
2022/03/26 13:48:15;;;;;;;9.85;4.47;;;;;;;;;;5004510;28;20045;-79
2022/03/26 13:50:41;;;;;;;7.50;3.97;;;;;;;;;;5012155;28;20184;-80
2022/03/26 13:53:20;;;;;;;8.60;3.78;;;;;;;;;;4970204;28;20490;-80
2022/03/26 13:55:47;;;;;;;6.97;4.70;;;;;;;;;;4990227;28;20128;-80
2022/03/26 13:58:18;;;;;;;5.90;3.45;;;;;;;;;;5016516;28;20138;-80
2022/03/26 14:00:47;;;;;;;6.03;3.75;;;;;;;;;;4992499;28;20497;-80
2022/03/26 14:03:15;;;;;;;7.43;4.15;;;;;;;;;;4974605;28;20128;-80
2022/03/26 14:05:42;;;;;;;6.90;3.60;;;;;;;;;;5015206;28;20054;-80
2022/03/26 14:08:14;;;;;;;5.90;3.70;;;;;;;;;;5026530;28;20050;-82
2022/03/26 14:10:44;;;;;;;5.85;2.80;;;;;;;;;;4947091;28;20137;-82
2022/03/26 14:13:11;;;;;;;7.00;3.53;;;;;;;;;;5016170;28;20046;-81
2022/03/26 14:15:38;;;;;;;9.60;2.70;;;;;;;;;;4972588;28;20509;-81
2022/03/26 14:18:25;;;;;;;6.68;3.03;;;;;;;;;;4950868;28;20444;-81
2022/03/26 14:20:51;;;;;;;6.95;3.17;;;;;;;;;;5019768;28;20057;-82
2022/03/26 14:23:19;;;;;;;6.57;4.53;;;;;;;;;;5017313;28;20045;-82
2022/03/26 14:25:45;;;;;;;6.03;3.45;;;;;;;;;;5023370;28;20055;-81